Latest Weather Observations for Adele Island

IDW60801

Issued at 7:02 pm WST Friday 6 May 2016 (issued every 30 minutes, with the page automatically refreshed every 10 minutes)

About weather observations | Map of weather stations | Latest weather observations for WA | Other Formats
Station Details ID: 200735 Name: ADELE ISLAND Lat: -15.51 Lon: 123.16 Height: 4.6 m
Data from the previous 72 hours. | See also: Recent months at Adele Island
Date/Time
WST
Temp
°C
App
Temp
°C
Dew
Point
Rel
Hum
%
Delta-T
°C
Wind Press
QNH
hPa
Press
MSL
hPa
Rain
since 9 am
mm
Dir
 
Spd
km/h
Gust
km/h
Spd
kts
Gust
kts
06/07:00pm - - - - - N 50 59 27 32 1007.7 1007.6 -
06/06:55pm - - - - - N 48 59 26 32 1007.8 1007.7 -
06/06:30pm - - - - - NNE 33 41 18 22 1007.3 1007.2 -
06/06:00pm - - - - - N 41 52 22 28 1007.1 1007.0 -
06/05:40pm - - - - - NNE 35 56 19 30 1006.7 1006.6 -
06/05:30pm - - - - - NNE 33 41 18 22 1006.5 1006.4 -
06/05:00pm - - - - - NNE 32 35 17 19 1006.1 1006.0 -
06/04:30pm - - - - - NNE 33 39 18 21 1006.1 1006.0 -
06/04:00pm - - - - - NNE 33 43 18 23 1006.2 1006.1 -
06/03:30pm - - - - - NNE 28 33 15 18 1006.0 1005.9 -
06/03:00pm - - - - - NNE 26 33 14 18 1006.3 1006.2 -
06/02:30pm - - - - - NE 26 30 14 16 1006.6 1006.5 -
06/02:00pm - - - - - NE 26 33 14 18 1006.9 1006.8 -
06/01:30pm - - - - - ENE 17 22 9 12 1007.3 1007.2 -
06/01:00pm - - - - - ENE 19 22 10 12 1007.8 1007.7 -
06/12:30pm - - - - - NE 17 20 9 11 1008.3 1008.2 -
06/12:00pm - - - - - ENE 19 24 10 13 1008.9 1008.8 -
06/11:30am - - - - - ENE 22 24 12 13 1009.2 1009.1 -
06/11:00am - - - - - ENE 20 26 11 14 1009.5 1009.4 -
06/10:30am - - - - - ENE 26 35 14 19 1010.1 1010.0 -
06/10:00am - - - - - E 20 26 11 14 1010.9 1010.8 -
06/09:30am - - - - - E 13 20 7 11 1011.4 1011.3 -
06/09:00am - - - - - NE 26 32 14 17 1011.7 1011.6 -
06/08:30am - - - - - ESE 28 37 15 20 1010.7 1010.6 -
06/08:00am - - - - - ESE 30 37 16 20 1010.9 1010.8 -
06/07:30am - - - - - ESE 26 37 14 20 1010.6 1010.5 -
06/07:00am - - - - - ESE 28 35 15 19 1010.2 1010.1 -
06/06:30am - - - - - ESE 28 41 15 22 1009.7 1009.6 -
06/06:29am - - - - - ESE 28 41 15 22 1009.6 1009.5 -
06/06:00am - - - - - NE 17 19 9 10 1009.2 1009.1 -
06/05:30am - - - - - NNE 19 20 10 11 1009.0 1008.9 -
06/05:00am - - - - - NE 19 22 10 12 1008.8 1008.7 -
06/04:30am - - - - - NE 19 24 10 13 1008.7 1008.6 -
06/04:00am - - - - - NE 17 20 9 11 1008.8 1008.7 -
06/03:30am - - - - - NE 17 20 9 11 1008.8 1008.7 -
06/03:00am - - - - - NE 20 22 11 12 1008.7 1008.6 -
06/02:30am - - - - - NE 19 20 10 11 1008.9 1008.8 -
06/02:00am - - - - - N 11 20 6 11 1009.3 1009.2 -
06/01:30am - - - - - NNE 15 19 8 10 1009.5 1009.4 -
06/01:00am - - - - - NNE 19 22 10 12 1009.4 1009.3 -
06/12:30am - - - - - NNE 17 20 9 11 1009.9 1009.8 -
06/12:00am - - - - - NNE 19 22 10 12 1010.2 1010.1 -
 
Date/Time
WST
Temp
°C
App
Temp
°C
Dew
Point
Rel
Hum
%
Delta-T
°C
Wind Press
QNH
hPa
Press
MSL
hPa
Rain
since 9 am
mm
Dir
 
Spd
km/h
Gust
km/h
Spd
kts
Gust
kts
05/11:30pm - - - - - NNE 20 22 11 12 1010.4 1010.3 -
05/11:00pm - - - - - NNE 19 20 10 11 1010.8 1010.7 -
05/10:30pm - - - - - NNE 13 17 7 9 1011.3 1011.2 -
05/10:00pm - - - - - NNE 13 17 7 9 1011.2 1011.1 -
05/09:30pm - - - - - N 15 19 8 10 1011.3 1011.2 -
05/09:00pm - - - - - N 13 15 7 8 1011.6 1011.5 -
05/08:30pm - - - - - N 15 19 8 10 1011.3 1011.2 -
05/08:00pm - - - - - NNE 15 19 8 10 1011.0 1010.9 -
05/07:30pm - - - - - N 15 17 8 9 1010.4 1010.3 -
05/07:00pm - - - - - N 13 17 7 9 1009.9 1009.8 -
05/06:30pm - - - - - NE 20 24 11 13 1009.6 1009.5 -
05/06:00pm - - - - - NE 20 24 11 13 1009.5 1009.4 -
05/05:30pm - - - - - ENE 19 22 10 12 1009.4 1009.3 -
05/05:00pm - - - - - ENE 17 20 9 11 1009.4 1009.3 -
05/04:30pm - - - - - ENE 19 20 10 11 1009.0 1008.9 -
05/04:00pm - - - - - ENE 17 22 9 12 1008.9 1008.8 -
05/03:30pm - - - - - NE 17 20 9 11 1008.8 1008.7 -
05/03:00pm - - - - - ENE 22 28 12 15 1008.5 1008.4 -
05/02:30pm - - - - - NE 24 28 13 15 1008.8 1008.7 -
05/02:00pm - - - - - ENE 17 22 9 12 1009.2 1009.1 -
05/01:30pm - - - - - ENE 19 24 10 13 1009.3 1009.2 -
05/01:00pm - - - - - ENE 20 26 11 14 1009.5 1009.4 -
05/12:30pm - - - - - ENE 22 26 12 14 1010.0 1009.9 -
05/12:00pm - - - - - ENE 22 28 12 15 1010.4 1010.3 -
05/11:30am - - - - - NE 20 26 11 14 1011.1 1011.0 -
05/11:00am - - - - - NE 20 24 11 13 1011.2 1011.1 -
05/10:30am - - - - - ENE 20 24 11 13 1011.7 1011.6 -
05/10:00am - - - - - NE 20 24 11 13 1012.0 1011.9 -
05/09:30am - - - - - NNE 22 28 12 15 1012.3 1012.2 -
05/09:00am - - - - - NNE 20 28 11 15 1012.2 1012.1 -
05/08:30am - - - - - NE 20 24 11 13 1012.2 1012.1 -
05/08:00am - - - - - NE 22 26 12 14 1011.6 1011.5 -
05/07:30am - - - - - NE 24 28 13 15 1011.0 1010.9 -
05/07:00am - - - - - NE 20 26 11 14 1010.8 1010.7 -
05/06:30am - - - - - NE 22 26 12 14 1010.6 1010.5 -
05/06:00am - - - - - NNE 22 24 12 13 1010.5 1010.4 -
05/05:30am - - - - - NE 20 26 11 14 1010.3 1010.2 -
05/05:00am - - - - - NE 20 22 11 12 1010.0 1009.9 -
05/04:30am - - - - - NE 19 20 10 11 1010.1 1010.0 -
05/04:00am - - - - - NE 20 28 11 15 1010.2 1010.1 -
05/03:30am - - - - - NE 20 30 11 16 1010.1 1010.0 -
05/03:00am - - - - - ENE 20 24 11 13 1010.2 1010.1 -
05/02:30am - - - - - NE 20 24 11 13 1010.1 1010.0 -
05/02:00am - - - - - NE 22 28 12 15 1010.3 1010.2 -
05/01:30am - - - - - ENE 20 24 11 13 1010.7 1010.6 -
05/01:00am - - - - - E 20 26 11 14 1011.1 1011.0 -
05/12:30am - - - - - ENE 24 30 13 16 1011.1 1011.0 -
05/12:00am - - - - - NE 24 28 13 15 1011.1 1011.0 -
 
Date/Time
WST
Temp
°C
App
Temp
°C
Dew
Point
Rel
Hum
%
Delta-T
°C
Wind Press
QNH
hPa
Press
MSL
hPa
Rain
since 9 am
mm
Dir
 
Spd
km/h
Gust
km/h
Spd
kts
Gust
kts
04/11:30pm - - - - - NE 26 30 14 16 1011.6 1011.5 -
04/11:00pm - - - - - NE 30 35 16 19 1011.9 1011.8 -
04/10:30pm - - - - - NE 28 33 15 18 1012.1 1012.0 -
04/10:00pm - - - - - NNE 26 32 14 17 1012.2 1012.1 -
04/09:30pm - - - - - NNE 28 32 15 17 1012.1 1012.0 -
04/09:00pm - - - - - NNE 26 30 14 16 1012.3 1012.2 -
04/08:30pm - - - - - NNE 26 30 14 16 1012.0 1011.9 -
04/08:00pm - - - - - NNE 22 28 12 15 1011.8 1011.7 -
04/07:30pm - - - - - NNE 19 20 10 11 1011.7 1011.6 -
04/07:00pm - - - - - NNE 20 22 11 12 1011.1 1011.0 -
04/06:30pm - - - - - N 20 22 11 12 1010.8 1010.7 -
04/06:00pm - - - - - NNE 19 22 10 12 1010.4 1010.3 -
04/05:30pm - - - - - NE 17 20 9 11 1010.0 1009.9 -
04/05:00pm - - - - - NE 15 19 8 10 1009.6 1009.5 -
04/04:30pm - - - - - NE 17 20 9 11 1009.4 1009.3 -
04/04:00pm - - - - - NE 15 20 8 11 1009.3 1009.2 -
04/03:30pm - - - - - NE 15 19 8 10 1009.1 1009.0 -
04/03:00pm - - - - - NNE 17 20 9 11 1009.2 1009.1 -
04/02:30pm - - - - - NNE 17 20 9 11 1009.0 1008.9 -
04/02:00pm - - - - - NE 19 22 10 12 1009.4 1009.3 -
04/01:30pm - - - - - NE 20 26 11 14 1009.7 1009.6 -
04/01:00pm - - - - - NE 17 22 9 12 1010.2 1010.1 -
04/12:30pm - - - - - ENE 19 24 10 13 1010.4 1010.3 -
04/12:00pm - - - - - ENE 19 22 10 12 1010.7 1010.6 -
04/11:30am - - - - - ENE 20 24 11 13 1011.2 1011.1 -
04/11:00am - - - - - NE 19 24 10 13 1011.8 1011.7 -
04/10:30am - - - - - ENE 17 19 9 10 1012.1 1012.0 -
04/10:00am - - - - - NE 15 19 8 10 1012.4 1012.3 -
04/09:30am - - - - - ENE 17 20 9 11 1012.6 1012.5 -
04/09:00am - - - - - NE 15 19 8 10 1012.8 1012.7 -
04/08:30am - - - - - ENE 17 20 9 11 1012.6 1012.5 -
04/08:00am - - - - - NE 15 17 8 9 1012.4 1012.3 -
04/07:30am - - - - - NE 13 17 7 9 1012.2 1012.1 -
04/07:00am - - - - - NE 15 17 8 9 1012.0 1011.9 -
04/06:30am - - - - - ENE 11 13 6 7 1011.7 1011.6 -
04/06:00am - - - - - NE 13 17 7 9 1011.0 1010.9 -
04/05:30am - - - - - NE 11 13 6 7 1010.6 1010.5 -
04/05:00am - - - - - NE 9 11 5 6 1010.6 1010.5 -
04/04:30am - - - - - NE 13 15 7 8 1010.3 1010.2 -
04/04:00am - - - - - CALM 0 4 0 2 1010.4 1010.3 -
04/03:30am - - - - - CALM 0 0 0 0 1010.2 1010.1 -
04/03:00am - - - - - CALM 0 2 0 1 1010.1 1010.0 -
04/02:30am - - - - - CALM 0 4 0 2 1010.3 1010.2 -
04/02:00am - - - - - NE 2 7 1 4 1010.4 1010.3 -
04/01:30am - - - - - N 4 7 2 4 1010.4 1010.3 -
04/01:00am - - - - - NNW 2 6 1 3 1010.3 1010.2 -
04/12:30am - - - - - NNW 7 7 4 4 1010.5 1010.4 -
04/12:00am - - - - - NNW 7 9 4 5 1010.9 1010.8 -
 
Date/Time
WST
Temp
°C
App
Temp
°C
Dew
Point
Rel
Hum
%
Delta-T
°C
Wind Press
QNH
hPa
Press
MSL
hPa
Rain
since 9 am
mm
Dir
 
Spd
km/h
Gust
km/h
Spd
kts
Gust
kts
03/11:30pm - - - - - NNW 6 7 3 4 1011.2 1011.1 -
03/11:00pm - - - - - NNW 6 7 3 4 1011.3 1011.2 -
03/10:30pm - - - - - NNW 7 7 4 4 1011.5 1011.4 -
03/10:00pm - - - - - NW 7 9 4 5 1011.5 1011.4 -
03/09:30pm - - - - - NW 9 11 5 6 1011.5 1011.4 -
03/09:00pm - - - - - WNW 9 11 5 6 1011.5 1011.4 -
03/08:30pm - - - - - NW 7 11 4 6 1011.4 1011.3 -
03/08:00pm - - - - - NW 11 13 6 7 1011.0 1010.9 -
03/07:30pm - - - - - NW 13 13 7 7 1010.8 1010.7 -

Other Formats:

Comma delimited format used in spreadsheet applications
http://www.bom.gov.au/fwo/IDW60801/IDW60801.94210.axf

JavaScript Object Notation format (JSON) in row-major order
http://www.bom.gov.au/fwo/IDW60801/IDW60801.94210.json